sensor_id;sensor_type;location;lat;lon;timestamp;P1;durP1;ratioP1;P2;durP2;ratioP2
28844;SDS011;15976;47.938;7.758;2023-05-07T00:02:16;6.82;;;3.78;;
28844;SDS011;15976;47.938;7.758;2023-05-07T00:04:43;4.03;;;3.35;;
28844;SDS011;15976;47.938;7.758;2023-05-07T00:07:11;5.97;;;3.75;;
28844;SDS011;15976;47.938;7.758;2023-05-07T00:09:38;5.28;;;3.45;;
28844;SDS011;15976;47.938;7.758;2023-05-07T00:12:06;4.13;;;3.53;;
28844;SDS011;15976;47.938;7.758;2023-05-07T00:14:33;7.10;;;3.60;;
28844;SDS011;15976;47.938;7.758;2023-05-07T00:17:00;7.15;;;3.50;;
28844;SDS011;15976;47.938;7.758;2023-05-07T00:19:27;7.85;;;3.08;;
28844;SDS011;15976;47.938;7.758;2023-05-07T00:21:54;4.60;;;2.97;;
28844;SDS011;15976;47.938;7.758;2023-05-07T00:24:22;4.75;;;3.10;;
28844;SDS011;15976;47.938;7.758;2023-05-07T00:26:49;4.65;;;3.05;;
28844;SDS011;15976;47.938;7.758;2023-05-07T00:29:16;6.43;;;3.28;;
28844;SDS011;15976;47.938;7.758;2023-05-07T00:31:43;6.25;;;3.33;;
28844;SDS011;15976;47.938;7.758;2023-05-07T00:34:10;5.25;;;3.00;;
28844;SDS011;15976;47.938;7.758;2023-05-07T00:36:37;7.00;;;3.67;;
28844;SDS011;15976;47.938;7.758;2023-05-07T00:39:04;3.78;;;2.90;;
28844;SDS011;15976;47.938;7.758;2023-05-07T00:41:31;5.35;;;3.10;;
28844;SDS011;15976;47.938;7.758;2023-05-07T00:43:58;6.35;;;3.30;;
28844;SDS011;15976;47.938;7.758;2023-05-07T00:46:25;5.63;;;3.38;;
28844;SDS011;15976;47.938;7.758;2023-05-07T00:48:52;5.97;;;3.08;;
28844;SDS011;15976;47.938;7.758;2023-05-07T00:51:20;6.60;;;3.65;;
28844;SDS011;15976;47.938;7.758;2023-05-07T00:53:47;5.00;;;3.42;;
28844;SDS011;15976;47.938;7.758;2023-05-07T00:56:14;6.35;;;3.13;;
28844;SDS011;15976;47.938;7.758;2023-05-07T00:58:41;4.53;;;2.75;;
28844;SDS011;15976;47.938;7.758;2023-05-07T01:01:09;4.43;;;2.85;;
28844;SDS011;15976;47.938;7.758;2023-05-07T01:03:36;7.47;;;3.05;;
28844;SDS011;15976;47.938;7.758;2023-05-07T01:06:04;3.45;;;2.70;;
28844;SDS011;15976;47.938;7.758;2023-05-07T01:08:33;4.97;;;3.00;;
28844;SDS011;15976;47.938;7.758;2023-05-07T01:11:01;2.70;;;2.42;;
28844;SDS011;15976;47.938;7.758;2023-05-07T01:13:30;8.48;;;2.55;;
28844;SDS011;15976;47.938;7.758;2023-05-07T01:15:57;4.30;;;2.72;;
28844;SDS011;15976;47.938;7.758;2023-05-07T01:18:24;6.10;;;2.80;;
28844;SDS011;15976;47.938;7.758;2023-05-07T01:20:53;5.45;;;2.72;;
28844;SDS011;15976;47.938;7.758;2023-05-07T01:23:25;3.33;;;2.80;;
28844;SDS011;15976;47.938;7.758;2023-05-07T01:25:54;4.40;;;2.75;;
28844;SDS011;15976;47.938;7.758;2023-05-07T01:28:24;4.68;;;2.95;;
28844;SDS011;15976;47.938;7.758;2023-05-07T01:30:56;4.07;;;3.03;;
28844;SDS011;15976;47.938;7.758;2023-05-07T01:33:28;7.55;;;3.00;;
28844;SDS011;15976;47.938;7.758;2023-05-07T01:35:58;4.43;;;2.85;;
28844;SDS011;15976;47.938;7.758;2023-05-07T01:38:30;5.50;;;2.72;;
28844;SDS011;15976;47.938;7.758;2023-05-07T01:40:57;5.13;;;3.05;;
28844;SDS011;15976;47.938;7.758;2023-05-07T01:43:24;4.78;;;2.80;;
28844;SDS011;15976;47.938;7.758;2023-05-07T01:45:52;4.28;;;3.22;;
28844;SDS011;15976;47.938;7.758;2023-05-07T01:48:19;6.15;;;2.92;;
28844;SDS011;15976;47.938;7.758;2023-05-07T01:50:47;7.28;;;3.38;;
28844;SDS011;15976;47.938;7.758;2023-05-07T01:53:14;4.22;;;2.90;;
28844;SDS011;15976;47.938;7.758;2023-05-07T01:55:42;5.18;;;2.80;;
28844;SDS011;15976;47.938;7.758;2023-05-07T01:58:09;3.75;;;3.03;;
28844;SDS011;15976;47.938;7.758;2023-05-07T02:00:37;5.32;;;2.90;;
28844;SDS011;15976;47.938;7.758;2023-05-07T02:03:06;3.42;;;2.92;;
28844;SDS011;15976;47.938;7.758;2023-05-07T02:05:46;4.82;;;3.15;;
28844;SDS011;15976;47.938;7.758;2023-05-07T02:08:21;8.93;;;3.03;;
28844;SDS011;15976;47.938;7.758;2023-05-07T02:10:48;6.85;;;2.78;;
28844;SDS011;15976;47.938;7.758;2023-05-07T02:13:16;6.70;;;3.13;;
28844;SDS011;15976;47.938;7.758;2023-05-07T02:15:43;5.68;;;3.17;;
28844;SDS011;15976;47.938;7.758;2023-05-07T02:18:13;4.50;;;2.88;;
28844;SDS011;15976;47.938;7.758;2023-05-07T02:20:40;5.20;;;3.22;;
28844;SDS011;15976;47.938;7.758;2023-05-07T02:23:07;4.05;;;2.70;;
28844;SDS011;15976;47.938;7.758;2023-05-07T02:25:34;4.30;;;2.50;;
28844;SDS011;15976;47.938;7.758;2023-05-07T02:28:01;5.60;;;3.00;;
28844;SDS011;15976;47.938;7.758;2023-05-07T02:30:42;5.93;;;2.80;;
28844;SDS011;15976;47.938;7.758;2023-05-07T02:33:09;4.82;;;3.13;;
28844;SDS011;15976;47.938;7.758;2023-05-07T02:35:39;4.35;;;2.80;;
28844;SDS011;15976;47.938;7.758;2023-05-07T02:38:07;5.30;;;3.00;;
28844;SDS011;15976;47.938;7.758;2023-05-07T02:40:34;5.97;;;3.00;;
28844;SDS011;15976;47.938;7.758;2023-05-07T02:43:05;7.78;;;3.38;;
28844;SDS011;15976;47.938;7.758;2023-05-07T02:45:32;4.63;;;3.30;;
28844;SDS011;15976;47.938;7.758;2023-05-07T02:48:00;5.32;;;3.00;;
28844;SDS011;15976;47.938;7.758;2023-05-07T02:50:28;8.65;;;3.45;;
28844;SDS011;15976;47.938;7.758;2023-05-07T02:52:55;3.83;;;2.60;;
28844;SDS011;15976;47.938;7.758;2023-05-07T02:55:22;7.65;;;2.95;;
28844;SDS011;15976;47.938;7.758;2023-05-07T02:57:49;6.03;;;2.97;;
28844;SDS011;15976;47.938;7.758;2023-05-07T03:00:17;3.25;;;2.95;;
28844;SDS011;15976;47.938;7.758;2023-05-07T03:03:04;11.90;;;3.38;;
28844;SDS011;15976;47.938;7.758;2023-05-07T03:05:31;4.68;;;2.65;;
28844;SDS011;15976;47.938;7.758;2023-05-07T03:07:58;4.78;;;2.95;;
28844;SDS011;15976;47.938;7.758;2023-05-07T03:10:25;5.63;;;2.92;;
28844;SDS011;15976;47.938;7.758;2023-05-07T03:12:52;5.57;;;2.90;;
28844;SDS011;15976;47.938;7.758;2023-05-07T03:15:19;6.63;;;3.03;;
28844;SDS011;15976;47.938;7.758;2023-05-07T03:17:47;5.93;;;3.13;;
28844;SDS011;15976;47.938;7.758;2023-05-07T03:20:14;7.53;;;2.90;;
28844;SDS011;15976;47.938;7.758;2023-05-07T03:22:41;5.10;;;3.13;;
28844;SDS011;15976;47.938;7.758;2023-05-07T03:25:09;5.15;;;3.10;;
28844;SDS011;15976;47.938;7.758;2023-05-07T03:27:36;5.55;;;3.50;;
28844;SDS011;15976;47.938;7.758;2023-05-07T03:30:04;7.15;;;3.60;;
28844;SDS011;15976;47.938;7.758;2023-05-07T03:32:33;8.07;;;3.70;;
28844;SDS011;15976;47.938;7.758;2023-05-07T03:35:05;4.38;;;3.50;;
28844;SDS011;15976;47.938;7.758;2023-05-07T03:37:32;5.50;;;3.13;;
28844;SDS011;15976;47.938;7.758;2023-05-07T03:39:59;5.32;;;3.30;;
28844;SDS011;15976;47.938;7.758;2023-05-07T03:42:27;8.50;;;3.20;;
28844;SDS011;15976;47.938;7.758;2023-05-07T03:44:55;7.15;;;3.22;;
28844;SDS011;15976;47.938;7.758;2023-05-07T03:47:22;4.60;;;3.17;;
28844;SDS011;15976;47.938;7.758;2023-05-07T03:49:49;7.90;;;3.10;;
28844;SDS011;15976;47.938;7.758;2023-05-07T03:52:21;5.38;;;3.25;;
28844;SDS011;15976;47.938;7.758;2023-05-07T03:54:55;6.50;;;3.30;;
28844;SDS011;15976;47.938;7.758;2023-05-07T03:57:22;4.40;;;2.90;;
28844;SDS011;15976;47.938;7.758;2023-05-07T03:59:49;5.05;;;3.10;;
28844;SDS011;15976;47.938;7.758;2023-05-07T04:02:17;5.63;;;3.03;;
28844;SDS011;15976;47.938;7.758;2023-05-07T04:04:44;4.18;;;3.08;;
28844;SDS011;15976;47.938;7.758;2023-05-07T04:07:11;4.15;;;2.88;;
28844;SDS011;15976;47.938;7.758;2023-05-07T04:09:42;4.13;;;2.85;;
28844;SDS011;15976;47.938;7.758;2023-05-07T04:12:09;4.47;;;3.35;;
28844;SDS011;15976;47.938;7.758;2023-05-07T04:14:37;5.65;;;3.40;;
28844;SDS011;15976;47.938;7.758;2023-05-07T04:17:04;6.45;;;3.72;;
28844;SDS011;15976;47.938;7.758;2023-05-07T04:19:33;4.53;;;3.15;;
28844;SDS011;15976;47.938;7.758;2023-05-07T04:22:00;7.43;;;3.58;;
28844;SDS011;15976;47.938;7.758;2023-05-07T04:24:30;6.10;;;3.67;;
28844;SDS011;15976;47.938;7.758;2023-05-07T04:27:00;4.82;;;3.35;;
28844;SDS011;15976;47.938;7.758;2023-05-07T04:29:27;4.80;;;3.45;;
28844;SDS011;15976;47.938;7.758;2023-05-07T04:31:55;5.47;;;3.42;;
28844;SDS011;15976;47.938;7.758;2023-05-07T04:34:23;3.60;;;3.15;;
28844;SDS011;15976;47.938;7.758;2023-05-07T04:36:50;5.18;;;3.35;;
28844;SDS011;15976;47.938;7.758;2023-05-07T04:39:17;6.25;;;3.47;;
28844;SDS011;15976;47.938;7.758;2023-05-07T04:41:46;3.53;;;3.00;;
28844;SDS011;15976;47.938;7.758;2023-05-07T04:44:13;4.68;;;3.65;;
28844;SDS011;15976;47.938;7.758;2023-05-07T04:46:41;10.10;;;3.70;;
28844;SDS011;15976;47.938;7.758;2023-05-07T04:49:09;5.20;;;3.72;;
28844;SDS011;15976;47.938;7.758;2023-05-07T04:51:37;4.82;;;3.10;;
28844;SDS011;15976;47.938;7.758;2023-05-07T04:54:04;4.90;;;3.35;;
28844;SDS011;15976;47.938;7.758;2023-05-07T04:56:31;3.40;;;2.88;;
28844;SDS011;15976;47.938;7.758;2023-05-07T04:59:00;6.00;;;3.28;;
28844;SDS011;15976;47.938;7.758;2023-05-07T05:01:27;7.22;;;3.45;;
28844;SDS011;15976;47.938;7.758;2023-05-07T05:03:55;5.00;;;3.25;;
28844;SDS011;15976;47.938;7.758;2023-05-07T05:06:22;5.25;;;3.40;;
28844;SDS011;15976;47.938;7.758;2023-05-07T05:08:50;4.18;;;3.40;;
28844;SDS011;15976;47.938;7.758;2023-05-07T05:11:17;7.05;;;3.78;;
28844;SDS011;15976;47.938;7.758;2023-05-07T05:13:45;6.47;;;4.10;;
28844;SDS011;15976;47.938;7.758;2023-05-07T05:16:17;5.00;;;3.70;;
28844;SDS011;15976;47.938;7.758;2023-05-07T05:18:45;5.10;;;3.35;;
28844;SDS011;15976;47.938;7.758;2023-05-07T05:21:15;6.35;;;3.72;;
28844;SDS011;15976;47.938;7.758;2023-05-07T05:23:44;6.45;;;3.55;;
28844;SDS011;15976;47.938;7.758;2023-05-07T05:26:12;4.75;;;3.33;;
28844;SDS011;15976;47.938;7.758;2023-05-07T05:28:40;5.38;;;3.70;;
28844;SDS011;15976;47.938;7.758;2023-05-07T05:31:07;4.45;;;3.40;;
28844;SDS011;15976;47.938;7.758;2023-05-07T05:33:35;6.57;;;3.65;;
28844;SDS011;15976;47.938;7.758;2023-05-07T05:36:04;6.97;;;3.78;;
28844;SDS011;15976;47.938;7.758;2023-05-07T05:38:32;8.05;;;3.33;;
28844;SDS011;15976;47.938;7.758;2023-05-07T05:40:59;6.03;;;3.15;;
28844;SDS011;15976;47.938;7.758;2023-05-07T05:43:28;5.75;;;3.60;;
28844;SDS011;15976;47.938;7.758;2023-05-07T05:45:55;6.82;;;3.30;;
28844;SDS011;15976;47.938;7.758;2023-05-07T05:48:23;5.28;;;3.20;;
28844;SDS011;15976;47.938;7.758;2023-05-07T05:50:50;3.95;;;3.53;;
28844;SDS011;15976;47.938;7.758;2023-05-07T05:53:18;5.70;;;3.17;;
28844;SDS011;15976;47.938;7.758;2023-05-07T05:55:45;4.78;;;3.78;;
28844;SDS011;15976;47.938;7.758;2023-05-07T05:58:12;4.68;;;3.25;;
28844;SDS011;15976;47.938;7.758;2023-05-07T06:00:43;7.25;;;3.17;;
28844;SDS011;15976;47.938;7.758;2023-05-07T06:03:11;6.40;;;3.25;;
28844;SDS011;15976;47.938;7.758;2023-05-07T06:05:40;4.38;;;3.30;;
28844;SDS011;15976;47.938;7.758;2023-05-07T06:08:07;6.10;;;3.47;;
28844;SDS011;15976;47.938;7.758;2023-05-07T06:10:35;5.90;;;3.38;;
28844;SDS011;15976;47.938;7.758;2023-05-07T06:13:05;3.83;;;3.25;;
28844;SDS011;15976;47.938;7.758;2023-05-07T06:15:33;4.72;;;3.15;;
28844;SDS011;15976;47.938;7.758;2023-05-07T06:18:06;4.53;;;3.33;;
28844;SDS011;15976;47.938;7.758;2023-05-07T06:20:33;6.85;;;3.22;;
28844;SDS011;15976;47.938;7.758;2023-05-07T06:23:03;7.80;;;3.60;;
28844;SDS011;15976;47.938;7.758;2023-05-07T06:25:32;4.75;;;3.20;;
28844;SDS011;15976;47.938;7.758;2023-05-07T06:27:59;7.70;;;3.53;;
28844;SDS011;15976;47.938;7.758;2023-05-07T06:30:27;6.65;;;3.80;;
28844;SDS011;15976;47.938;7.758;2023-05-07T06:32:54;7.20;;;3.67;;
28844;SDS011;15976;47.938;7.758;2023-05-07T06:35:22;7.20;;;3.53;;
28844;SDS011;15976;47.938;7.758;2023-05-07T06:37:49;6.35;;;3.58;;
28844;SDS011;15976;47.938;7.758;2023-05-07T06:40:21;3.83;;;3.47;;
28844;SDS011;15976;47.938;7.758;2023-05-07T06:42:48;9.48;;;3.33;;
28844;SDS011;15976;47.938;7.758;2023-05-07T06:45:28;5.13;;;3.45;;
28844;SDS011;15976;47.938;7.758;2023-05-07T06:47:56;5.00;;;3.58;;
28844;SDS011;15976;47.938;7.758;2023-05-07T06:50:24;4.60;;;3.90;;
28844;SDS011;15976;47.938;7.758;2023-05-07T06:52:55;7.18;;;3.80;;
28844;SDS011;15976;47.938;7.758;2023-05-07T06:55:22;4.80;;;3.50;;
28844;SDS011;15976;47.938;7.758;2023-05-07T06:57:49;5.50;;;4.10;;
28844;SDS011;15976;47.938;7.758;2023-05-07T07:00:18;8.02;;;4.80;;
28844;SDS011;15976;47.938;7.758;2023-05-07T07:05:20;7.30;;;4.18;;
28844;SDS011;15976;47.938;7.758;2023-05-07T07:07:47;4.95;;;3.88;;
28844;SDS011;15976;47.938;7.758;2023-05-07T07:10:20;6.82;;;4.10;;
28844;SDS011;15976;47.938;7.758;2023-05-07T07:12:48;5.20;;;4.70;;
28844;SDS011;15976;47.938;7.758;2023-05-07T07:15:16;5.95;;;4.63;;
28844;SDS011;15976;47.938;7.758;2023-05-07T07:17:44;7.13;;;4.10;;
28844;SDS011;15976;47.938;7.758;2023-05-07T07:20:11;6.38;;;4.40;;
28844;SDS011;15976;47.938;7.758;2023-05-07T07:22:40;7.47;;;4.50;;
28844;SDS011;15976;47.938;7.758;2023-05-07T07:25:07;6.93;;;4.25;;
28844;SDS011;15976;47.938;7.758;2023-05-07T07:27:36;6.63;;;4.70;;
28844;SDS011;15976;47.938;7.758;2023-05-07T07:30:04;5.20;;;4.18;;
28844;SDS011;15976;47.938;7.758;2023-05-07T07:32:34;6.88;;;4.28;;
28844;SDS011;15976;47.938;7.758;2023-05-07T07:35:01;8.95;;;4.82;;
28844;SDS011;15976;47.938;7.758;2023-05-07T07:37:28;7.32;;;4.57;;
28844;SDS011;15976;47.938;7.758;2023-05-07T07:39:56;7.13;;;4.20;;
28844;SDS011;15976;47.938;7.758;2023-05-07T07:42:24;8.55;;;4.60;;
28844;SDS011;15976;47.938;7.758;2023-05-07T07:44:52;5.40;;;4.13;;
28844;SDS011;15976;47.938;7.758;2023-05-07T07:47:21;7.03;;;4.40;;
28844;SDS011;15976;47.938;7.758;2023-05-07T07:49:51;5.95;;;4.32;;
28844;SDS011;15976;47.938;7.758;2023-05-07T07:52:18;7.50;;;4.63;;
28844;SDS011;15976;47.938;7.758;2023-05-07T07:54:46;7.43;;;4.55;;
28844;SDS011;15976;47.938;7.758;2023-05-07T07:57:14;5.78;;;4.47;;
28844;SDS011;15976;47.938;7.758;2023-05-07T07:59:41;5.45;;;4.50;;
28844;SDS011;15976;47.938;7.758;2023-05-07T08:02:11;7.50;;;4.38;;
28844;SDS011;15976;47.938;7.758;2023-05-07T08:04:39;8.63;;;4.22;;
28844;SDS011;15976;47.938;7.758;2023-05-07T08:07:07;9.45;;;4.50;;
28844;SDS011;15976;47.938;7.758;2023-05-07T08:09:38;5.10;;;3.95;;
28844;SDS011;15976;47.938;7.758;2023-05-07T08:12:06;4.88;;;3.97;;
28844;SDS011;15976;47.938;7.758;2023-05-07T08:14:34;7.93;;;4.65;;
28844;SDS011;15976;47.938;7.758;2023-05-07T08:17:04;8.55;;;5.30;;
28844;SDS011;15976;47.938;7.758;2023-05-07T08:19:33;9.30;;;4.75;;
28844;SDS011;15976;47.938;7.758;2023-05-07T08:22:00;8.95;;;6.30;;
28844;SDS011;15976;47.938;7.758;2023-05-07T08:24:28;7.25;;;4.70;;
28844;SDS011;15976;47.938;7.758;2023-05-07T08:26:56;8.25;;;4.63;;
28844;SDS011;15976;47.938;7.758;2023-05-07T08:29:23;9.32;;;5.13;;
28844;SDS011;15976;47.938;7.758;2023-05-07T08:31:51;17.00;;;10.55;;
28844;SDS011;15976;47.938;7.758;2023-05-07T08:34:18;8.52;;;5.35;;
28844;SDS011;15976;47.938;7.758;2023-05-07T08:36:47;6.50;;;4.82;;
28844;SDS011;15976;47.938;7.758;2023-05-07T08:39:18;9.95;;;5.18;;
28844;SDS011;15976;47.938;7.758;2023-05-07T08:41:48;7.93;;;5.63;;
28844;SDS011;15976;47.938;7.758;2023-05-07T08:44:18;7.78;;;5.00;;
28844;SDS011;15976;47.938;7.758;2023-05-07T08:46:50;7.30;;;5.28;;
28844;SDS011;15976;47.938;7.758;2023-05-07T08:49:22;8.75;;;4.75;;
28844;SDS011;15976;47.938;7.758;2023-05-07T08:51:54;5.97;;;4.88;;
28844;SDS011;15976;47.938;7.758;2023-05-07T08:54:23;7.88;;;4.97;;
28844;SDS011;15976;47.938;7.758;2023-05-07T08:56:51;4.85;;;3.40;;
28844;SDS011;15976;47.938;7.758;2023-05-07T08:59:19;5.50;;;4.43;;
28844;SDS011;15976;47.938;7.758;2023-05-07T09:01:47;6.47;;;4.28;;
28844;SDS011;15976;47.938;7.758;2023-05-07T09:04:14;5.78;;;3.85;;
28844;SDS011;15976;47.938;7.758;2023-05-07T09:06:43;5.45;;;3.72;;
28844;SDS011;15976;47.938;7.758;2023-05-07T09:09:16;5.75;;;3.75;;
28844;SDS011;15976;47.938;7.758;2023-05-07T09:11:46;5.15;;;3.58;;
28844;SDS011;15976;47.938;7.758;2023-05-07T09:14:16;7.43;;;3.78;;
28844;SDS011;15976;47.938;7.758;2023-05-07T09:16:45;7.20;;;4.40;;
28844;SDS011;15976;47.938;7.758;2023-05-07T09:19:13;6.68;;;4.40;;
28844;SDS011;15976;47.938;7.758;2023-05-07T09:21:44;6.35;;;5.20;;
28844;SDS011;15976;47.938;7.758;2023-05-07T09:24:12;9.32;;;6.75;;
28844;SDS011;15976;47.938;7.758;2023-05-07T09:26:42;5.60;;;4.55;;
28844;SDS011;15976;47.938;7.758;2023-05-07T09:29:10;5.50;;;4.03;;
28844;SDS011;15976;47.938;7.758;2023-05-07T09:31:39;5.00;;;4.32;;
28844;SDS011;15976;47.938;7.758;2023-05-07T09:34:10;10.18;;;6.72;;
28844;SDS011;15976;47.938;7.758;2023-05-07T09:36:39;6.20;;;4.68;;
28844;SDS011;15976;47.938;7.758;2023-05-07T09:39:08;7.13;;;4.50;;
28844;SDS011;15976;47.938;7.758;2023-05-07T09:41:43;4.57;;;3.35;;
28844;SDS011;15976;47.938;7.758;2023-05-07T09:44:18;6.18;;;3.83;;
28844;SDS011;15976;47.938;7.758;2023-05-07T09:46:53;6.03;;;3.58;;
28844;SDS011;15976;47.938;7.758;2023-05-07T09:49:30;5.03;;;3.45;;
28844;SDS011;15976;47.938;7.758;2023-05-07T09:52:07;4.70;;;3.47;;
28844;SDS011;15976;47.938;7.758;2023-05-07T09:54:40;14.45;;;3.72;;
28844;SDS011;15976;47.938;7.758;2023-05-07T09:57:11;6.55;;;3.20;;
28844;SDS011;15976;47.938;7.758;2023-05-07T09:59:42;5.00;;;3.47;;
28844;SDS011;15976;47.938;7.758;2023-05-07T10:02:13;6.70;;;3.65;;
28844;SDS011;15976;47.938;7.758;2023-05-07T10:04:47;4.45;;;3.17;;
28844;SDS011;15976;47.938;7.758;2023-05-07T10:07:19;5.88;;;3.30;;
28844;SDS011;15976;47.938;7.758;2023-05-07T10:09:50;5.57;;;4.25;;
28844;SDS011;15976;47.938;7.758;2023-05-07T10:12:33;11.63;;;5.13;;
28844;SDS011;15976;47.938;7.758;2023-05-07T10:15:10;7.28;;;4.78;;
28844;SDS011;15976;47.938;7.758;2023-05-07T10:17:41;5.90;;;4.65;;
28844;SDS011;15976;47.938;7.758;2023-05-07T10:20:10;9.23;;;4.72;;
28844;SDS011;15976;47.938;7.758;2023-05-07T10:22:44;8.18;;;4.80;;
28844;SDS011;15976;47.938;7.758;2023-05-07T10:25:18;8.93;;;4.95;;
28844;SDS011;15976;47.938;7.758;2023-05-07T10:27:53;8.57;;;5.15;;
28844;SDS011;15976;47.938;7.758;2023-05-07T10:32:55;7.35;;;5.20;;
28844;SDS011;15976;47.938;7.758;2023-05-07T10:35:40;7.63;;;5.82;;
28844;SDS011;15976;47.938;7.758;2023-05-07T10:38:10;8.82;;;5.70;;
28844;SDS011;15976;47.938;7.758;2023-05-07T10:40:40;7.07;;;5.45;;
28844;SDS011;15976;47.938;7.758;2023-05-07T10:43:07;7.00;;;6.05;;
28844;SDS011;15976;47.938;7.758;2023-05-07T10:46:09;7.05;;;5.00;;
28844;SDS011;15976;47.938;7.758;2023-05-07T10:52:10;6.60;;;4.90;;
28844;SDS011;15976;47.938;7.758;2023-05-07T10:54:42;5.70;;;4.68;;
28844;SDS011;15976;47.938;7.758;2023-05-07T11:05:37;5.95;;;4.28;;
28844;SDS011;15976;47.938;7.758;2023-05-07T11:08:14;6.85;;;4.13;;
28844;SDS011;15976;47.938;7.758;2023-05-07T11:11:07;6.10;;;4.10;;
28844;SDS011;15976;47.938;7.758;2023-05-07T11:16:41;5.78;;;3.67;;
28844;SDS011;15976;47.938;7.758;2023-05-07T11:19:47;7.25;;;4.20;;
28844;SDS011;15976;47.938;7.758;2023-05-07T11:22:53;5.43;;;3.90;;
28844;SDS011;15976;47.938;7.758;2023-05-07T11:25:20;5.75;;;4.07;;
28844;SDS011;15976;47.938;7.758;2023-05-07T11:28:14;4.53;;;3.58;;
28844;SDS011;15976;47.938;7.758;2023-05-07T11:30:50;7.70;;;3.75;;
28844;SDS011;15976;47.938;7.758;2023-05-07T11:33:19;4.85;;;3.83;;
28844;SDS011;15976;47.938;7.758;2023-05-07T11:35:49;4.75;;;3.80;;
28844;SDS011;15976;47.938;7.758;2023-05-07T11:38:19;5.50;;;3.78;;
28844;SDS011;15976;47.938;7.758;2023-05-07T11:40:50;5.25;;;3.22;;
28844;SDS011;15976;47.938;7.758;2023-05-07T11:43:28;4.20;;;3.20;;
28844;SDS011;15976;47.938;7.758;2023-05-07T11:46:04;4.45;;;3.17;;
28844;SDS011;15976;47.938;7.758;2023-05-07T11:48:34;4.75;;;3.28;;
28844;SDS011;15976;47.938;7.758;2023-05-07T11:51:02;4.97;;;3.33;;
28844;SDS011;15976;47.938;7.758;2023-05-07T11:53:39;4.55;;;3.45;;
28844;SDS011;15976;47.938;7.758;2023-05-07T11:56:10;5.03;;;3.63;;
28844;SDS011;15976;47.938;7.758;2023-05-07T11:58:42;7.40;;;4.30;;
28844;SDS011;15976;47.938;7.758;2023-05-07T12:01:10;5.70;;;3.75;;
28844;SDS011;15976;47.938;7.758;2023-05-07T12:03:41;4.38;;;3.47;;
28844;SDS011;15976;47.938;7.758;2023-05-07T12:06:11;5.40;;;3.47;;
28844;SDS011;15976;47.938;7.758;2023-05-07T12:08:40;5.35;;;4.30;;
28844;SDS011;15976;47.938;7.758;2023-05-07T12:11:14;5.07;;;4.13;;
28844;SDS011;15976;47.938;7.758;2023-05-07T12:13:51;5.78;;;4.03;;
28844;SDS011;15976;47.938;7.758;2023-05-07T12:16:24;5.68;;;4.40;;
28844;SDS011;15976;47.938;7.758;2023-05-07T12:18:52;5.80;;;4.60;;
28844;SDS011;15976;47.938;7.758;2023-05-07T12:21:21;5.80;;;3.60;;
28844;SDS011;15976;47.938;7.758;2023-05-07T12:23:49;5.55;;;3.70;;
28844;SDS011;15976;47.938;7.758;2023-05-07T12:26:18;5.05;;;3.70;;
28844;SDS011;15976;47.938;7.758;2023-05-07T12:28:48;4.68;;;4.07;;
28844;SDS011;15976;47.938;7.758;2023-05-07T12:31:15;6.55;;;4.53;;
28844;SDS011;15976;47.938;7.758;2023-05-07T12:33:42;5.25;;;4.03;;
28844;SDS011;15976;47.938;7.758;2023-05-07T12:36:11;6.05;;;4.78;;
28844;SDS011;15976;47.938;7.758;2023-05-07T12:38:39;5.50;;;3.78;;
28844;SDS011;15976;47.938;7.758;2023-05-07T12:41:10;7.13;;;4.10;;
28844;SDS011;15976;47.938;7.758;2023-05-07T12:43:39;5.68;;;3.80;;
28844;SDS011;15976;47.938;7.758;2023-05-07T12:46:06;6.20;;;3.50;;
28844;SDS011;15976;47.938;7.758;2023-05-07T12:48:38;4.15;;;3.40;;
28844;SDS011;15976;47.938;7.758;2023-05-07T12:51:09;4.35;;;3.45;;
28844;SDS011;15976;47.938;7.758;2023-05-07T12:53:42;6.15;;;3.88;;
28844;SDS011;15976;47.938;7.758;2023-05-07T12:56:09;6.78;;;3.80;;
28844;SDS011;15976;47.938;7.758;2023-05-07T12:58:36;4.70;;;3.35;;
28844;SDS011;15976;47.938;7.758;2023-05-07T13:01:04;5.38;;;4.10;;
28844;SDS011;15976;47.938;7.758;2023-05-07T13:03:36;6.80;;;3.92;;
28844;SDS011;15976;47.938;7.758;2023-05-07T13:06:05;4.88;;;3.92;;
28844;SDS011;15976;47.938;7.758;2023-05-07T13:08:37;10.10;;;4.60;;
28844;SDS011;15976;47.938;7.758;2023-05-07T13:11:08;5.70;;;4.45;;
28844;SDS011;15976;47.938;7.758;2023-05-07T13:13:37;6.28;;;4.25;;
28844;SDS011;15976;47.938;7.758;2023-05-07T13:16:05;6.43;;;5.00;;
28844;SDS011;15976;47.938;7.758;2023-05-07T13:18:34;5.78;;;4.93;;
28844;SDS011;15976;47.938;7.758;2023-05-07T13:21:01;5.43;;;4.60;;
28844;SDS011;15976;47.938;7.758;2023-05-07T13:23:28;8.25;;;5.15;;
28844;SDS011;15976;47.938;7.758;2023-05-07T13:25:56;7.05;;;5.18;;
28844;SDS011;15976;47.938;7.758;2023-05-07T13:28:29;8.85;;;5.53;;
28844;SDS011;15976;47.938;7.758;2023-05-07T13:30:57;6.13;;;5.35;;
28844;SDS011;15976;47.938;7.758;2023-05-07T13:33:24;9.98;;;5.43;;
28844;SDS011;15976;47.938;7.758;2023-05-07T13:35:51;9.20;;;5.75;;
28844;SDS011;15976;47.938;7.758;2023-05-07T13:38:18;7.88;;;5.57;;
28844;SDS011;15976;47.938;7.758;2023-05-07T13:40:45;6.88;;;5.32;;
28844;SDS011;15976;47.938;7.758;2023-05-07T13:43:13;8.32;;;5.78;;
28844;SDS011;15976;47.938;7.758;2023-05-07T13:45:40;5.95;;;5.35;;
28844;SDS011;15976;47.938;7.758;2023-05-07T13:48:07;6.00;;;5.38;;
28844;SDS011;15976;47.938;7.758;2023-05-07T13:50:35;9.18;;;5.53;;
28844;SDS011;15976;47.938;7.758;2023-05-07T13:53:02;8.13;;;5.18;;
28844;SDS011;15976;47.938;7.758;2023-05-07T13:55:29;6.28;;;5.43;;
28844;SDS011;15976;47.938;7.758;2023-05-07T13:57:57;9.55;;;4.88;;
28844;SDS011;15976;47.938;7.758;2023-05-07T14:00:31;5.82;;;4.45;;
28844;SDS011;15976;47.938;7.758;2023-05-07T14:02:58;7.15;;;4.00;;
28844;SDS011;15976;47.938;7.758;2023-05-07T14:05:25;5.97;;;4.40;;
28844;SDS011;15976;47.938;7.758;2023-05-07T14:07:55;4.70;;;3.72;;
28844;SDS011;15976;47.938;7.758;2023-05-07T14:10:23;6.55;;;4.10;;
28844;SDS011;15976;47.938;7.758;2023-05-07T14:12:51;4.40;;;3.78;;
28844;SDS011;15976;47.938;7.758;2023-05-07T14:15:19;5.20;;;3.60;;
28844;SDS011;15976;47.938;7.758;2023-05-07T14:17:46;5.80;;;3.60;;
28844;SDS011;15976;47.938;7.758;2023-05-07T14:20:13;5.75;;;3.47;;
28844;SDS011;15976;47.938;7.758;2023-05-07T14:22:40;5.97;;;3.35;;
28844;SDS011;15976;47.938;7.758;2023-05-07T14:25:08;4.30;;;3.40;;
28844;SDS011;15976;47.938;7.758;2023-05-07T14:27:36;5.03;;;3.45;;
28844;SDS011;15976;47.938;7.758;2023-05-07T14:30:03;5.03;;;2.85;;
28844;SDS011;15976;47.938;7.758;2023-05-07T14:32:30;3.60;;;2.80;;
28844;SDS011;15976;47.938;7.758;2023-05-07T14:34:58;3.85;;;3.28;;
28844;SDS011;15976;47.938;7.758;2023-05-07T14:37:25;4.35;;;2.90;;
28844;SDS011;15976;47.938;7.758;2023-05-07T14:39:53;3.55;;;2.60;;
28844;SDS011;15976;47.938;7.758;2023-05-07T14:42:20;2.65;;;2.33;;
28844;SDS011;15976;47.938;7.758;2023-05-07T14:44:47;4.50;;;2.60;;
28844;SDS011;15976;47.938;7.758;2023-05-07T14:47:14;3.65;;;2.50;;
28844;SDS011;15976;47.938;7.758;2023-05-07T14:49:45;3.40;;;2.38;;
28844;SDS011;15976;47.938;7.758;2023-05-07T14:52:12;3.22;;;2.28;;
28844;SDS011;15976;47.938;7.758;2023-05-07T14:54:39;4.20;;;2.58;;
28844;SDS011;15976;47.938;7.758;2023-05-07T14:57:07;3.08;;;2.30;;
28844;SDS011;15976;47.938;7.758;2023-05-07T14:59:37;4.45;;;2.65;;
28844;SDS011;15976;47.938;7.758;2023-05-07T15:02:05;6.28;;;2.65;;
28844;SDS011;15976;47.938;7.758;2023-05-07T15:04:35;5.10;;;2.45;;
28844;SDS011;15976;47.938;7.758;2023-05-07T15:07:04;4.45;;;2.20;;
28844;SDS011;15976;47.938;7.758;2023-05-07T15:09:31;4.60;;;2.65;;
28844;SDS011;15976;47.938;7.758;2023-05-07T15:11:58;4.07;;;2.80;;
28844;SDS011;15976;47.938;7.758;2023-05-07T15:14:26;5.00;;;2.78;;
28844;SDS011;15976;47.938;7.758;2023-05-07T15:16:53;2.75;;;2.55;;
28844;SDS011;15976;47.938;7.758;2023-05-07T15:19:20;5.10;;;2.38;;
28844;SDS011;15976;47.938;7.758;2023-05-07T15:21:48;3.97;;;2.65;;